GQPZ

Tazadit Airport

Zouérate, Mauritania
METAR GQPZ 211800Z 10017KT 4000 DRSA NSC 23/M02 Q1021
Observed Flight Rules
Jan-21 @ 18:00 UTC (2 hours ago) Instrument Flight Rules
Wind Visibility Clouds Conditions
100° at 17 knots 4,007 meters
  • Clear skies
  • Low drifting
  • Sand
Temperatures Readings
Current 23°C / 73°F
Dewpoint -2°C / 28°F
Humidity 19%
Altimeter 30.15" Hg
Pressure 1021 hPa
Elevation 344
METAR GQPZ 211800Z 10017KT 4000 DRSA NSC 23/M02 Q1021
Observed Flight Rules
Jan-21 @ 18:00 UTC
(2 hours ago)
IFR
Wind Visibility
100° at 17 knots 4,007 meters
Clouds
  • Clear skies
Conditions
  • Low drifting
  • Sand
Temperature Dewpoint
23°C / 73°F -2°C / 28°F
Humidity Altimeter Pressure
19% 30.15" Hg 1021 hPa